createdAt,value
2023-09-25T00:01:20.648Z,11.20
2023-09-25T00:06:22.171Z,11.20
2023-09-25T00:11:23.749Z,11.21
2023-09-25T00:16:25.567Z,11.18
2023-09-25T00:21:27.116Z,11.14
2023-09-25T00:26:28.671Z,11.02
2023-09-25T00:31:30.049Z,11.16
2023-09-25T00:36:31.449Z,11.10
2023-09-25T00:41:33.010Z,10.87
2023-09-25T00:46:36.601Z,10.33
2023-09-25T00:51:38.315Z,9.81
2023-09-25T00:56:39.894Z,9.41
2023-09-25T01:01:41.587Z,9.27
2023-09-25T01:06:45.833Z,9.09
2023-09-25T01:11:47.215Z,8.99
2023-09-25T01:16:48.896Z,9.21
2023-09-25T01:21:50.367Z,9.21
2023-09-25T01:26:52.039Z,9.14
2023-09-25T01:31:53.521Z,9.21
2023-09-25T01:36:55.002Z,9.36
2023-09-25T01:41:56.436Z,9.48
2023-09-25T01:46:58.344Z,9.62
2023-09-25T01:51:59.802Z,9.86
2023-09-25T01:57:01.169Z,10.01
2023-09-25T02:02:02.603Z,10.07
2023-09-25T02:07:04.171Z,10.09
2023-09-25T02:12:06.211Z,10.05
2023-09-25T02:17:07.684Z,9.98
2023-09-25T02:22:09.060Z,9.98
2023-09-25T02:27:10.461Z,9.81
2023-09-25T02:32:12.873Z,9.76
2023-09-25T02:37:14.442Z,9.85
2023-09-25T02:42:15.822Z,9.73
2023-09-25T02:47:17.178Z,9.57
2023-09-25T02:52:18.561Z,9.30
2023-09-25T02:57:20.056Z,9.30
2023-09-25T03:02:21.949Z,9.65
2023-09-25T03:07:23.341Z,9.65
2023-09-25T03:12:24.769Z,9.77
2023-09-25T03:17:26.303Z,9.70
2023-09-25T03:22:27.655Z,9.66
2023-09-25T03:27:29.073Z,9.73
2023-09-25T03:32:30.526Z,9.73
2023-09-25T03:37:32.129Z,9.55
2023-09-25T03:42:34.051Z,9.57
2023-09-25T03:47:36.185Z,9.53
2023-09-25T03:52:37.716Z,9.44
2023-09-25T03:57:39.207Z,9.26
2023-09-25T04:02:40.728Z,9.16
2023-09-25T04:07:42.190Z,8.70
2023-09-25T04:12:43.597Z,8.28
2023-09-25T04:17:45.085Z,8.14
2023-09-25T04:22:46.530Z,7.99
2023-09-25T04:27:49.125Z,7.85
2023-09-25T04:32:55.202Z,7.84
2023-09-25T04:37:56.876Z,7.79
2023-09-25T04:42:58.511Z,8.09
2023-09-25T04:48:00.435Z,8.39
2023-09-25T04:53:01.827Z,8.67
2023-09-25T04:58:03.641Z,8.60
2023-09-25T05:03:05.591Z,8.73
2023-09-25T05:08:07.324Z,8.88
2023-09-25T05:13:08.717Z,8.88
2023-09-25T05:18:10.174Z,8.94
2023-09-25T05:23:11.655Z,8.81
2023-09-25T05:28:13.197Z,8.78
2023-09-25T05:33:14.878Z,8.77
2023-09-25T05:38:16.408Z,8.85
2023-09-25T05:43:17.799Z,8.77
2023-09-25T05:48:19.206Z,8.33
2023-09-25T05:53:20.982Z,8.24
2023-09-25T05:58:22.374Z,8.32
2023-09-25T06:03:26.925Z,8.40
2023-09-25T06:08:28.409Z,9.08
2023-09-25T06:13:31.341Z,9.78
2023-09-25T06:18:32.786Z,10.48
2023-09-25T06:23:34.162Z,12.02
2023-09-25T06:28:35.731Z,14.39
2023-09-25T06:33:37.221Z,15.17
2023-09-25T06:38:38.720Z,14.61
2023-09-25T06:43:40.322Z,14.77
2023-09-25T06:48:41.920Z,15.41
2023-09-25T06:53:44.178Z,16.17
2023-09-25T06:58:45.548Z,16.33
2023-09-25T07:03:47.300Z,17.23
2023-09-25T07:08:49.820Z,19.37
2023-09-25T07:13:51.601Z,20.04
2023-09-25T07:18:53.288Z,19.61
2023-09-25T07:23:54.835Z,20.33
2023-09-25T07:28:56.228Z,19.77
2023-09-25T07:33:59.272Z,20.05
2023-09-25T07:39:01.552Z,19.53
2023-09-25T07:44:06.790Z,20.23
2023-09-25T07:49:09.081Z,19.95
2023-09-25T07:54:11.454Z,21.26
2023-09-25T07:59:14.481Z,21.93
2023-09-25T08:04:15.979Z,23.12
2023-09-25T08:09:20.729Z,22.55
2023-09-25T08:14:22.447Z,24.00
2023-09-25T08:19:24.406Z,23.52
2023-09-25T08:24:25.910Z,23.40
2023-09-25T08:29:27.340Z,24.31
2023-09-25T08:34:28.849Z,23.97
2023-09-25T08:39:30.230Z,23.35
2023-09-25T08:44:31.744Z,22.46
2023-09-25T08:49:33.777Z,23.34
2023-09-25T08:54:36.660Z,22.35
2023-09-25T08:59:38.506Z,23.36
2023-09-25T09:04:40.117Z,23.44
2023-09-25T09:09:43.177Z,23.22
2023-09-25T09:14:45.050Z,23.14
2023-09-25T09:19:49.776Z,23.13
2023-09-25T09:24:54.433Z,23.72
2023-09-25T09:29:58.423Z,23.80
2023-09-25T09:35:01.626Z,23.28
2023-09-25T09:40:04.543Z,23.80
2023-09-25T09:45:09.881Z,24.84
2023-09-25T09:50:14.490Z,24.69
2023-09-25T09:55:16.402Z,25.56
2023-09-25T10:00:18.145Z,24.77
2023-09-25T10:05:19.603Z,24.75
2023-09-25T10:10:23.046Z,24.82
2023-09-25T10:15:26.593Z,23.82
2023-09-25T10:20:43.810Z,24.30
2023-09-25T10:25:45.169Z,23.30
2023-09-25T10:30:46.589Z,24.52
2023-09-25T10:35:54.124Z,24.03
2023-09-25T10:40:57.492Z,24.73
2023-09-25T10:45:59.034Z,25.09
2023-09-25T10:51:00.563Z,24.15
2023-09-25T10:56:01.973Z,24.60
2023-09-25T11:01:05.626Z,25.61
2023-09-25T11:06:09.456Z,24.91
2023-09-25T11:11:14.734Z,25.40
2023-09-25T11:16:16.196Z,26.91
2023-09-25T11:21:17.679Z,25.14
2023-09-25T11:26:19.061Z,25.09
2023-09-25T11:31:20.539Z,26.09
2023-09-25T11:36:22.087Z,25.27
2023-09-25T11:41:23.520Z,25.14
2023-09-25T11:46:24.877Z,24.67
2023-09-25T11:51:26.875Z,25.38
2023-09-25T11:56:28.328Z,24.85
2023-09-25T12:01:30.099Z,24.89
2023-09-25T12:06:33.123Z,24.38
2023-09-25T12:11:35.860Z,25.04
2023-09-25T12:16:37.965Z,25.23
2023-09-25T12:21:39.509Z,25.35
2023-09-25T12:26:40.868Z,24.61
2023-09-25T12:31:42.358Z,25.02
2023-09-25T12:36:43.832Z,24.86
2023-09-25T12:41:45.253Z,24.70
2023-09-25T12:46:47.072Z,25.03
2023-09-25T12:51:48.933Z,24.31
2023-09-25T12:56:50.868Z,24.25
2023-09-25T13:01:52.293Z,23.82
2023-09-25T13:06:54.902Z,23.54
2023-09-25T13:11:56.422Z,23.92
2023-09-25T13:16:57.941Z,23.53
2023-09-25T13:21:59.494Z,22.82
2023-09-25T13:27:00.965Z,22.96
2023-09-25T13:32:03.094Z,22.75
2023-09-25T13:37:06.136Z,22.60
2023-09-25T13:42:07.572Z,23.19
2023-09-25T13:47:08.960Z,22.81
2023-09-25T13:52:10.788Z,23.05
2023-09-25T14:02:15.602Z,23.24
2023-09-25T14:07:17.005Z,22.89
2023-09-25T14:12:18.390Z,22.92
2023-09-25T14:17:19.783Z,23.47
2023-09-25T14:22:21.235Z,23.12
2023-09-25T14:27:22.729Z,22.96
2023-09-25T14:32:24.156Z,22.48
2023-09-25T14:37:25.545Z,22.31
2023-09-25T14:42:31.133Z,22.09
2023-09-25T14:47:32.795Z,22.11
2023-09-25T14:52:34.272Z,21.97
2023-09-25T14:57:35.779Z,21.89
2023-09-25T15:02:37.801Z,21.76
2023-09-25T15:07:39.298Z,21.75
2023-09-25T15:12:40.775Z,21.43
2023-09-25T15:17:42.552Z,21.30
2023-09-25T15:22:43.999Z,21.20
2023-09-25T15:27:45.413Z,21.09
2023-09-25T15:32:47.106Z,20.93
2023-09-25T15:37:48.562Z,20.86
2023-09-25T15:42:52.318Z,20.83
2023-09-25T15:47:56.409Z,20.94
2023-09-25T15:52:57.861Z,20.97
2023-09-25T15:57:59.269Z,21.23
2023-09-25T16:03:00.679Z,21.19
2023-09-25T16:08:02.174Z,21.08
2023-09-25T16:13:03.632Z,21.03
2023-09-25T16:18:05.285Z,20.89
2023-09-25T16:23:06.925Z,20.83
2023-09-25T16:28:08.337Z,20.71
2023-09-25T16:33:09.809Z,20.54
2023-09-25T16:38:12.626Z,20.37
2023-09-25T16:43:14.040Z,20.34
2023-09-25T16:48:15.723Z,20.10
2023-09-25T16:53:17.144Z,19.84
2023-09-25T16:58:19.206Z,19.56
2023-09-25T17:03:20.702Z,19.25
2023-09-25T17:08:22.122Z,19.03
2023-09-25T17:13:23.524Z,18.75
2023-09-25T17:18:24.965Z,18.50
2023-09-25T17:23:26.439Z,18.10
2023-09-25T17:28:27.892Z,17.91
2023-09-25T17:33:29.337Z,17.39
2023-09-25T17:38:32.156Z,16.98
2023-09-25T17:43:33.722Z,16.50
2023-09-25T17:48:35.158Z,16.31
2023-09-25T17:53:36.609Z,16.13
2023-09-25T17:58:39.176Z,15.95
2023-09-25T18:03:41.078Z,15.73
2023-09-25T18:08:42.543Z,15.49
2023-09-25T18:13:43.908Z,15.15
2023-09-25T18:18:46.237Z,14.88
2023-09-25T18:23:47.759Z,14.67
2023-09-25T18:28:49.591Z,14.41
2023-09-25T18:33:51.934Z,14.25
2023-09-25T18:38:53.505Z,14.03
2023-09-25T18:43:58.665Z,13.84
2023-09-25T18:49:00.532Z,13.67
2023-09-25T18:54:01.924Z,13.53
2023-09-25T18:59:03.349Z,13.41
2023-09-25T19:04:04.905Z,13.29
2023-09-25T19:09:10.053Z,13.21
2023-09-25T19:14:12.085Z,13.11
2023-09-25T19:19:13.478Z,12.94
2023-09-25T19:24:15.192Z,12.75
2023-09-25T19:29:16.712Z,12.59
2023-09-25T19:34:18.251Z,12.46
2023-09-25T19:39:19.961Z,12.31
2023-09-25T19:44:21.501Z,12.19
2023-09-25T19:49:22.957Z,12.05
2023-09-25T19:54:25.768Z,11.97
2023-09-25T19:59:27.317Z,11.83
2023-09-25T20:04:28.934Z,11.73
2023-09-25T20:09:30.423Z,11.64
2023-09-25T20:14:32.213Z,11.48
2023-09-25T20:19:33.636Z,11.44
2023-09-25T20:24:35.164Z,11.31
2023-09-25T20:29:36.574Z,11.21
2023-09-25T20:34:38.001Z,11.09
2023-09-25T20:39:39.409Z,11.04
2023-09-25T20:44:40.816Z,10.94
2023-09-25T20:49:42.194Z,10.84
2023-09-25T20:54:43.657Z,10.72
2023-09-25T20:59:45.121Z,10.64
2023-09-25T21:04:46.544Z,10.53
2023-09-25T21:09:48.157Z,10.38
2023-09-25T21:14:49.573Z,10.34
2023-09-25T21:19:51.053Z,10.24
2023-09-25T21:24:52.565Z,10.13
2023-09-25T21:29:54.041Z,10.08
2023-09-25T21:34:55.588Z,9.95
2023-09-25T21:39:57.012Z,9.87
2023-09-25T21:44:58.521Z,9.82
2023-09-25T21:49:59.888Z,9.74
2023-09-25T21:55:03.607Z,9.63
2023-09-25T22:00:07.421Z,9.63
2023-09-25T22:05:10.723Z,9.60
2023-09-25T22:10:13.683Z,9.58
2023-09-25T22:15:15.114Z,9.51
2023-09-25T22:20:25.780Z,9.39
2023-09-25T22:25:27.454Z,9.24
2023-09-25T22:30:29.245Z,9.15
2023-09-25T22:35:30.795Z,9.05
2023-09-25T22:40:33.205Z,8.94
2023-09-25T22:45:34.605Z,9.01
2023-09-25T22:50:36.209Z,8.99
2023-09-25T22:55:37.617Z,8.94
2023-09-25T23:00:39.040Z,8.88
2023-09-25T23:05:40.402Z,8.89
2023-09-25T23:10:42.122Z,8.79
2023-09-25T23:15:43.558Z,8.72
2023-09-25T23:20:45.554Z,8.66
2023-09-25T23:25:46.997Z,8.51
2023-09-25T23:30:48.766Z,8.46
2023-09-25T23:35:50.170Z,8.36
2023-09-25T23:40:51.645Z,8.31
2023-09-25T23:45:53.108Z,8.25
2023-09-25T23:50:55.696Z,8.21
2023-09-25T23:56:03.646Z,8.20
